Time;durP1;ratioP1;P1;durP2;ratioP2;P2;SDS_P1;SDS_P2;PMS_P1;PMS_P2;Temp;Humidity;BMP_temperature;BMP_pressure;BME280_temperature;BME280_humidity;BME280_pressure;Samples;Min_cycle;Max_cycle;Signal;HPM_P1;HPM_P2
2024/02/06 00:00:12;;;;;;;5.40;2.58;;;;;;;7.22;100.00;96084.78;1026939;28;20011;-66
2024/02/06 00:00:42;;;;;;;0.32;0.32;;;;;;;7.24;100.00;96077.50;1029612;28;20039;-65
2024/02/06 00:01:13;;;;;;;0.45;0.25;;;;;;;7.33;100.00;96080.53;1034108;28;20552;-68
2024/02/06 00:01:49;;;;;;;0.08;0.08;;;;;;;7.28;100.00;96068.19;1032748;28;20018;-67
2024/02/06 00:02:20;;;;;;;0.00;0.00;;;;;;;7.32;100.00;96074.50;1023096;29;20015;-66
2024/02/06 00:02:50;;;;;;;0.80;0.50;;;;;;;7.27;100.00;96077.00;1022910;29;20522;-67
2024/02/06 00:03:21;;;;;;;0.77;0.77;;;;;;;7.36;100.00;96081.88;1023947;28;20105;-67
2024/02/06 00:03:51;;;;;;;0.82;0.45;;;;;;;7.30;100.00;96079.16;1027023;28;20019;-65
2024/02/06 00:04:22;;;;;;;1.65;0.80;;;;;;;7.33;100.00;96083.13;1030886;28;20022;-65
2024/02/06 00:04:52;;;;;;;0.10;0.10;;;;;;;7.39;100.00;96077.00;1027145;28;20022;-66
2024/02/06 00:05:23;;;;;;;0.68;0.68;;;;;;;7.37;100.00;96080.84;1030734;28;20486;-66
2024/02/06 00:05:53;;;;;;;0.88;0.65;;;;;;;7.33;100.00;96078.69;1026898;28;20019;-67
2024/02/06 00:06:23;;;;;;;0.10;0.10;;;;;;;7.31;100.00;96067.72;1027174;28;20022;-67
2024/02/06 00:06:54;;;;;;;2.53;1.35;;;;;;;7.28;100.00;96075.22;1029118;28;20734;-65
2024/02/06 00:07:24;;;;;;;0.63;0.35;;;;;;;7.23;100.00;96075.13;1029871;28;20034;-67
2024/02/06 00:07:55;;;;;;;0.20;0.20;;;;;;;7.29;100.00;96068.97;1034949;28;20025;-65
2024/02/06 00:08:25;;;;;;;1.10;0.88;;;;;;;7.42;100.00;96083.56;1029790;28;20034;-68
2024/02/06 00:08:56;;;;;;;1.30;0.75;;;;;;;7.40;100.00;96075.16;1034904;28;20022;-65
2024/02/06 00:09:26;;;;;;;2.35;1.45;;;;;;;7.43;100.00;96075.50;1034318;28;20510;-66
2024/02/06 00:09:57;;;;;;;0.63;0.52;;;;;;;7.37;100.00;96065.97;1030600;28;20109;-63
2024/02/06 00:10:27;;;;;;;0.90;0.63;;;;;;;7.35;100.00;96073.25;1033208;28;20093;-65
2024/02/06 00:10:58;;;;;;;0.03;0.03;;;;;;;7.26;100.00;96072.84;1026901;28;20041;-68
2024/02/06 00:11:28;;;;;;;0.20;0.20;;;;;;;7.26;100.00;96059.78;1027030;28;20030;-65
2024/02/06 00:11:59;;;;;;;5.20;1.15;;;;;;;7.31;100.00;96072.94;1028902;28;20403;-65
2024/02/06 00:12:29;;;;;;;1.48;0.90;;;;;;;7.38;100.00;96066.75;1027098;28;20030;-66
2024/02/06 00:12:59;;;;;;;2.75;0.57;;;;;;;7.39;100.00;96065.75;1030974;28;20516;-68
2024/02/06 00:13:30;;;;;;;0.20;0.20;;;;;;;7.41;100.00;96074.13;1031521;28;20049;-66
2024/02/06 00:14:00;;;;;;;4.60;0.43;;;;;;;7.35;100.00;96072.47;1034932;28;20103;-66
2024/02/06 00:14:31;;;;;;;0.85;0.57;;;;;;;7.33;100.00;96072.69;1035192;28;20022;-66
2024/02/06 00:15:01;;;;;;;0.45;0.45;;;;;;;7.28;100.00;96065.56;1030859;28;20777;-65
2024/02/06 00:15:32;;;;;;;0.30;0.30;;;;;;;7.23;100.00;96075.13;1026772;28;20062;-66
2024/02/06 00:16:09;;;;;;;2.47;1.35;;;;;;;7.23;100.00;96064.69;1022949;28;20067;-66
2024/02/06 00:16:40;;;;;;;3.50;1.80;;;;;;;7.18;100.00;96062.78;1027783;28;20019;-67
2024/02/06 00:17:11;;;;;;;0.93;0.85;;;;;;;7.26;100.00;96062.41;1028021;28;20518;-66
2024/02/06 00:17:41;;;;;;;0.22;0.22;;;;;;;7.33;100.00;96070.88;1031980;28;20509;-65
2024/02/06 00:18:12;;;;;;;8.05;0.38;;;;;;;7.27;100.00;96071.78;1034636;28;20029;-65
2024/02/06 00:18:42;;;;;;;5.22;2.10;;;;;;;7.23;100.00;96073.28;1033610;28;20608;-66
2024/02/06 00:19:13;;;;;;;0.47;0.32;;;;;;;7.24;100.00;96064.47;1034262;28;20019;-67
2024/02/06 00:19:43;;;;;;;0.75;0.52;;;;;;;7.17;100.00;96071.59;1037941;28;20623;-65
2024/02/06 00:20:19;;;;;;;0.13;0.13;;;;;;;7.09;100.00;96070.16;1034516;28;20018;-65
2024/02/06 00:20:49;;;;;;;0.52;0.35;;;;;;;7.02;100.00;96066.91;1030936;28;20120;-67
2024/02/06 00:21:20;;;;;;;0.93;0.85;;;;;;;7.03;100.00;96065.09;1030814;28;20114;-65
2024/02/06 00:21:50;;;;;;;0.20;0.20;;;;;;;7.10;100.00;96076.16;1031669;28;20478;-66
2024/02/06 00:22:20;;;;;;;0.55;0.55;;;;;;;7.05;100.00;96068.25;1027679;28;20038;-66
2024/02/06 00:22:51;;;;;;;0.00;0.00;;;;;;;7.07;100.00;96071.41;1026910;28;20022;-67
2024/02/06 00:23:21;;;;;;;0.22;0.08;;;;;;;7.06;100.00;96065.41;1022663;29;20019;-67
2024/02/06 00:23:52;;;;;;;1.05;0.70;;;;;;;7.08;100.00;96070.41;1021082;28;20497;-67
2024/02/06 00:24:22;;;;;;;0.65;0.55;;;;;;;7.03;100.00;96065.09;1018740;29;20024;-66
2024/02/06 00:24:53;;;;;;;0.20;0.20;;;;;;;7.12;100.00;96071.53;1023019;29;20507;-68
2024/02/06 00:25:23;;;;;;;1.40;1.30;;;;;;;7.19;100.00;96064.34;1018924;29;20027;-66
2024/02/06 00:25:55;;;;;;;0.22;0.22;;;;;;;7.23;100.00;96064.69;1023028;28;20031;-67
2024/02/06 00:26:26;;;;;;;0.38;0.38;;;;;;;7.15;100.00;96063.25;1031613;28;20104;-65
2024/02/06 00:26:56;;;;;;;1.27;0.77;;;;;;;7.12;100.00;96068.91;1034438;28;20089;-66
2024/02/06 00:27:27;;;;;;;0.28;0.28;;;;;;;7.06;100.00;96062.00;1038779;28;20024;-64
2024/02/06 00:27:57;;;;;;;12.20;0.25;;;;;;;7.06;100.00;96062.00;1038703;28;20043;-69
2024/02/06 00:28:28;;;;;;;0.40;0.40;;;;;;;7.07;100.00;96053.16;1034326;28;20041;-65
2024/02/06 00:28:58;;;;;;;5.75;1.42;;;;;;;7.01;100.00;96056.72;1034836;28;20022;-66
2024/02/06 00:29:29;;;;;;;0.40;0.40;;;;;;;7.07;100.00;96055.75;1034320;28;20759;-65
2024/02/06 00:29:59;;;;;;;4.78;1.05;;;;;;;7.15;100.00;96057.22;1034364;28;20402;-65
2024/02/06 00:30:30;;;;;;;0.43;0.43;;;;;;;7.12;100.00;96058.47;1031482;28;20561;-65
2024/02/06 00:31:01;;;;;;;0.28;0.25;;;;;;;7.10;100.00;96055.31;1039446;28;20575;-67
2024/02/06 00:31:31;;;;;;;0.00;0.00;;;;;;;7.07;100.00;96063.59;1039258;28;20135;-65
2024/02/06 00:32:03;;;;;;;1.88;1.65;;;;;;;7.13;100.00;96049.63;1039473;28;20057;-67
2024/02/06 00:32:33;;;;;;;1.25;0.38;;;;;;;7.08;100.00;96055.53;1039176;28;20025;-66
2024/02/06 00:33:04;;;;;;;0.05;0.05;;;;;;;7.08;100.00;96057.38;1039207;28;20021;-65
2024/02/06 00:33:34;;;;;;;1.55;1.20;;;;;;;7.09;100.00;96054.50;1039336;28;20021;-63
2024/02/06 00:34:05;;;;;;;0.52;0.52;;;;;;;7.04;100.00;96046.59;1039258;28;20013;-67
2024/02/06 00:34:35;;;;;;;0.10;0.03;;;;;;;7.05;100.00;96053.41;1034793;28;20029;-65
2024/02/06 00:35:06;;;;;;;1.15;1.05;;;;;;;7.04;100.00;96051.81;1034495;28;20085;-65
2024/02/06 00:35:37;;;;;;;0.10;0.10;;;;;;;6.97;100.00;96050.34;1023419;28;20115;-65
2024/02/06 00:36:07;;;;;;;0.40;0.38;;;;;;;7.06;100.00;96054.19;1025271;28;20372;-65
2024/02/06 00:36:37;;;;;;;1.92;1.75;;;;;;;7.12;100.00;96055.88;1030738;28;20018;-65
2024/02/06 00:37:08;;;;;;;2.13;0.90;;;;;;;7.16;100.00;96054.38;1028485;28;20439;-66
2024/02/06 00:37:38;;;;;;;0.47;0.47;;;;;;;7.15;100.00;96057.22;1034332;28;20026;-66
2024/02/06 00:38:09;;;;;;;0.00;0.00;;;;;;;7.05;100.00;96042.19;1033599;28;20018;-66
2024/02/06 00:38:39;;;;;;;0.40;0.15;;;;;;;7.03;100.00;96054.66;1030697;28;20026;-66
2024/02/06 00:39:10;;;;;;;1.67;1.58;;;;;;;7.03;100.00;96049.44;1032266;28;20074;-67
2024/02/06 00:39:40;;;;;;;0.35;0.00;;;;;;;7.00;100.00;96058.50;1034802;28;20070;-66
2024/02/06 00:40:11;;;;;;;0.10;0.10;;;;;;;7.04;100.00;96051.81;1031099;28;20042;-65
2024/02/06 00:40:41;;;;;;;0.00;0.00;;;;;;;7.00;100.00;96048.06;1030652;28;20429;-65
2024/02/06 00:41:12;;;;;;;0.35;0.35;;;;;;;7.01;100.00;96052.28;1030773;28;20441;-66
2024/02/06 00:41:43;;;;;;;0.47;0.47;;;;;;;7.03;100.00;96049.44;1022979;28;20142;-65
2024/02/06 00:42:13;;;;;;;0.20;0.20;;;;;;;7.01;100.00;96052.28;1022878;29;20501;-66
2024/02/06 00:42:44;;;;;;;0.00;0.00;;;;;;;6.96;100.00;96048.78;1025895;28;20030;-64
2024/02/06 00:43:14;;;;;;;0.47;0.47;;;;;;;6.88;100.00;96049.94;1023527;28;20589;-68
2024/02/06 00:43:45;;;;;;;0.28;0.28;;;;;;;6.98;100.00;96054.56;1026971;28;20031;-66
2024/02/06 00:44:17;;;;;;;2.78;1.25;;;;;;;7.01;100.00;96054.09;1030805;28;20022;-65
2024/02/06 00:44:47;;;;;;;0.10;0.10;;;;;;;7.00;100.00;96057.72;1027066;28;20113;-65
2024/02/06 00:45:18;;;;;;;0.03;0.03;;;;;;;7.01;100.00;96047.06;1030935;28;20076;-65
2024/02/06 00:45:50;;;;;;;0.98;0.47;;;;;;;6.91;100.00;96046.88;1030879;28;20493;-68
2024/02/06 00:46:21;;;;;;;0.57;0.57;;;;;;;7.01;100.00;96051.50;1027187;28;20050;-67
2024/02/06 00:46:51;;;;;;;0.10;0.10;;;;;;;6.98;100.00;96054.56;1030744;28;20414;-65
2024/02/06 00:47:22;;;;;;;0.45;0.45;;;;;;;6.94;100.00;96056.03;1031352;28;20057;-66
2024/02/06 00:47:52;;;;;;;0.15;0.15;;;;;;;7.02;100.00;96042.63;1030763;28;20076;-67
2024/02/06 00:48:23;;;;;;;0.30;0.30;;;;;;;6.98;100.00;96046.75;1030589;28;20626;-67
2024/02/06 00:48:54;;;;;;;1.45;0.98;;;;;;;6.91;100.00;96046.88;1030785;28;20035;-66
2024/02/06 00:49:25;;;;;;;1.52;0.93;;;;;;;6.88;100.00;96049.94;1030355;28;20391;-67
2024/02/06 00:49:55;;;;;;;2.35;1.20;;;;;;;6.87;100.00;96044.94;1037608;28;20088;-66
2024/02/06 00:50:25;;;;;;;0.65;0.38;;;;;;;6.82;100.00;96043.81;1034933;28;20402;-65
2024/02/06 00:50:56;;;;;;;0.20;0.20;;;;;;;6.78;100.00;96049.75;1034866;28;20030;-64
2024/02/06 00:51:26;;;;;;;1.27;0.20;;;;;;;6.78;100.00;96052.34;1026560;28;20034;-66
2024/02/06 00:51:57;;;;;;;0.90;0.40;;;;;;;6.82;100.00;96051.66;1022609;28;20012;-66
2024/02/06 00:52:27;;;;;;;1.45;0.95;;;;;;;6.89;100.00;96048.91;1023057;29;20484;-67
2024/02/06 00:52:58;;;;;;;0.43;0.40;;;;;;;6.92;100.00;96047.66;1022610;28;20046;-65
2024/02/06 00:53:28;;;;;;;1.65;1.27;;;;;;;6.92;100.00;96042.44;1030636;28;20033;-67
2024/02/06 00:53:59;;;;;;;1.98;0.65;;;;;;;6.95;100.00;96052.41;1030966;28;20089;-67
2024/02/06 00:54:29;;;;;;;1.88;1.75;;;;;;;6.99;100.00;96056.13;1034885;28;20073;-67
2024/02/06 00:55:00;;;;;;;3.72;0.65;;;;;;;6.93;100.00;96052.63;1026352;28;20057;-67
2024/02/06 00:55:31;;;;;;;0.35;0.35;;;;;;;6.89;100.00;96042.91;1026766;28;20026;-67
2024/02/06 00:56:04;;;;;;;1.77;1.67;;;;;;;6.90;100.00;96054.91;1030762;28;20095;-67
2024/02/06 00:56:34;;;;;;;0.20;0.20;;;;;;;6.91;100.00;96051.28;1023306;28;20131;-64
2024/02/06 00:57:05;;;;;;;0.00;0.00;;;;;;;6.89;100.00;96043.69;1026514;28;20031;-65
2024/02/06 00:57:35;;;;;;;2.38;1.02;;;;;;;6.91;100.00;96028.63;1030545;28;20043;-64
2024/02/06 00:58:06;;;;;;;0.88;0.88;;;;;;;6.97;100.00;96047.75;1031084;28;20574;-65
2024/02/06 00:58:36;;;;;;;1.88;1.58;;;;;;;6.92;100.00;96042.44;1039095;28;20021;-65
2024/02/06 00:59:07;;;;;;;0.10;0.10;;;;;;;6.97;100.00;96050.34;1034739;28;20505;-69
2024/02/06 00:59:38;;;;;;;0.88;0.55;;;;;;;6.95;100.00;96047.19;1034638;28;20030;-68
2024/02/06 01:00:09;;;;;;;0.20;0.20;;;;;;;6.92;100.00;96048.44;1034707;28;20061;-67
2024/02/06 01:00:40;;;;;;;3.13;0.90;;;;;;;6.90;100.00;96054.91;1035248;28;20382;-67
2024/02/06 01:01:10;;;;;;;1.25;0.47;;;;;;;6.85;100.00;96050.41;1039333;28;20033;-65
2024/02/06 01:01:41;;;;;;;12.55;2.33;;;;;;;6.82;100.00;96054.25;1034353;28;20481;-65
2024/02/06 01:02:11;;;;;;;0.52;0.52;;;;;;;6.80;100.00;96052.88;1035036;28;20029;-67
2024/02/06 01:02:42;;;;;;;0.10;0.10;;;;;;;6.85;100.00;96060.81;1030751;28;20023;-65
2024/02/06 01:03:12;;;;;;;0.30;0.30;;;;;;;6.80;100.00;96053.69;1027038;28;20035;-68
2024/02/06 01:03:43;;;;;;;0.10;0.10;;;;;;;6.84;100.00;96061.84;1026849;28;20074;-67
2024/02/06 01:04:14;;;;;;;8.40;0.63;;;;;;;6.84;100.00;96052.22;1026980;28;20078;-65
2024/02/06 01:04:45;;;;;;;0.15;0.15;;;;;;;6.81;100.00;96054.50;1031158;28;20105;-64
2024/02/06 01:05:15;;;;;;;1.08;0.30;;;;;;;6.82;100.00;96053.47;1033328;28;20038;-68
2024/02/06 01:05:46;;;;;;;0.55;0.35;;;;;;;6.78;100.00;96053.13;1030818;28;20030;-66
2024/02/06 01:06:16;;;;;;;0.45;0.45;;;;;;;6.84;100.00;96052.22;1030821;28;20030;-66
2024/02/06 01:06:46;;;;;;;2.80;2.20;;;;;;;6.79;100.00;96049.50;1026569;28;20057;-64
2024/02/06 01:07:18;;;;;;;0.65;0.47;;;;;;;6.77;100.00;96055.94;1022783;28;20046;-66
2024/02/06 01:07:49;;;;;;;1.08;0.38;;;;;;;6.76;100.00;96049.16;1022385;29;20059;-67
2024/02/06 01:08:19;;;;;;;0.00;0.00;;;;;;;6.78;100.00;96057.56;1022536;28;20392;-66
2024/02/06 01:08:51;;;;;;;0.30;0.30;;;;;;;6.74;100.00;96045.97;1034960;28;20033;-66
2024/02/06 01:09:21;;;;;;;4.60;1.10;;;;;;;6.79;100.00;96049.50;1030199;28;20029;-66
2024/02/06 01:09:52;;;;;;;0.20;0.20;;;;;;;6.81;100.00;96052.69;1030839;28;20046;-66
2024/02/06 01:10:22;;;;;;;0.15;0.15;;;;;;;6.79;100.00;96049.50;1025517;28;20019;-66
2024/02/06 01:10:53;;;;;;;0.57;0.57;;;;;;;6.80;100.00;96045.84;1026996;28;20023;-65
2024/02/06 01:11:23;;;;;;;0.20;0.20;;;;;;;6.86;100.00;96049.38;1030632;28;20037;-69
2024/02/06 01:11:53;;;;;;;0.57;0.52;;;;;;;6.96;100.00;96044.34;1031131;28;20018;-66
2024/02/06 01:12:24;;;;;;;0.28;0.28;;;;;;;6.89;100.00;96054.13;1030817;28;20018;-66
2024/02/06 01:12:55;;;;;;;0.00;0.00;;;;;;;6.84;100.00;96046.19;1026925;28;20062;-64
2024/02/06 01:13:25;;;;;;;10.52;0.95;;;;;;;6.96;100.00;96054.00;1030803;28;20034;-68
2024/02/06 01:13:55;;;;;;;4.78;1.50;;;;;;;7.01;100.00;96047.06;1026828;28;20018;-68
2024/02/06 01:14:26;;;;;;;9.25;0.93;;;;;;;7.04;100.00;96043.19;1030802;28;20100;-67
2024/02/06 01:14:59;;;;;;;0.50;0.50;;;;;;;7.00;100.00;96053.28;1030712;28;20638;-65
2024/02/06 01:15:34;;;;;;;0.20;0.08;;;;;;;6.97;100.00;96047.75;1034060;28;20067;-66
2024/02/06 01:16:04;;;;;;;0.55;0.55;;;;;;;6.94;100.00;96051.63;1035032;28;20084;-65
2024/02/06 01:16:35;;;;;;;0.50;0.50;;;;;;;6.87;100.00;96044.94;1034827;28;20026;-65
2024/02/06 01:17:05;;;;;;;0.43;0.35;;;;;;;6.91;100.00;96051.28;1030766;28;20026;-65
2024/02/06 01:17:36;;;;;;;1.08;0.68;;;;;;;6.87;100.00;96052.75;1031201;28;20054;-66
2024/02/06 01:18:06;;;;;;;3.92;1.10;;;;;;;6.91;100.00;96051.28;1034779;28;20041;-64
2024/02/06 01:18:37;;;;;;;0.30;0.30;;;;;;;6.86;100.00;96062.41;1030546;28;20529;-66
2024/02/06 01:19:07;;;;;;;0.08;0.08;;;;;;;6.96;100.00;96056.59;1033778;28;20040;-65
2024/02/06 01:19:38;;;;;;;2.17;1.00;;;;;;;6.99;100.00;96058.75;1030469;28;20030;-66
2024/02/06 01:20:09;;;;;;;0.17;0.17;;;;;;;6.93;100.00;96054.44;1031200;28;20490;-66
2024/02/06 01:20:39;;;;;;;0.25;0.10;;;;;;;6.90;100.00;96054.91;1034572;28;20030;-66
2024/02/06 01:21:09;;;;;;;0.30;0.30;;;;;;;6.91;100.00;96061.69;1031051;28;20026;-65
2024/02/06 01:21:40;;;;;;;15.60;0.68;;;;;;;6.90;100.00;96052.31;1030767;28;20030;-65
2024/02/06 01:22:10;;;;;;;0.98;0.60;;;;;;;6.93;100.00;96050.03;1034703;28;20029;-66
2024/02/06 01:22:41;;;;;;;2.08;0.75;;;;;;;6.89;100.00;96054.13;1031213;28;20033;-67
2024/02/06 01:23:11;;;;;;;0.00;0.00;;;;;;;6.84;100.00;96052.22;1035663;28;20030;-66
2024/02/06 01:23:42;;;;;;;2.47;1.45;;;;;;;6.83;100.00;96048.00;1035311;28;20033;-65
2024/02/06 01:24:13;;;;;;;0.15;0.13;;;;;;;6.84;100.00;96052.22;1035832;28;20670;-65
2024/02/06 01:24:43;;;;;;;2.70;0.82;;;;;;;6.82;100.00;96053.47;1035393;28;20041;-66
2024/02/06 01:25:14;;;;;;;1.35;0.20;;;;;;;6.81;100.00;96054.50;1035602;28;20466;-65
2024/02/06 01:25:44;;;;;;;0.50;0.40;;;;;;;6.76;100.00;96049.94;1027255;28;20046;-66
2024/02/06 01:26:15;;;;;;;0.20;0.20;;;;;;;6.73;100.00;96052.22;1027410;28;20030;-66
2024/02/06 01:26:46;;;;;;;0.43;0.43;;;;;;;6.74;100.00;96051.19;1031516;28;20078;-68
2024/02/06 01:27:17;;;;;;;0.17;0.17;;;;;;;6.81;100.00;96052.69;1023247;28;20023;-63
2024/02/06 01:27:47;;;;;;;0.20;0.20;;;;;;;6.79;100.00;96054.72;1027563;28;20599;-65
2024/02/06 01:28:18;;;;;;;0.00;0.00;;;;;;;6.75;100.00;96050.97;1023371;29;20035;-67
2024/02/06 01:28:49;;;;;;;0.00;0.00;;;;;;;6.89;100.00;96050.72;1024195;28;20043;-65
2024/02/06 01:29:19;;;;;;;1.15;0.35;;;;;;;6.94;100.00;96051.63;1030811;28;20018;-66
2024/02/06 01:29:49;;;;;;;0.90;0.52;;;;;;;6.96;100.00;96049.56;1031510;28;20058;-66
2024/02/06 01:30:20;;;;;;;0.10;0.10;;;;;;;7.00;100.00;96039.44;1027347;28;20050;-65
2024/02/06 01:30:50;;;;;;;0.08;0.08;;;;;;;7.02;100.00;96038.19;1030872;28;20034;-65
2024/02/06 01:31:21;;;;;;;1.67;1.58;;;;;;;7.03;100.00;96041.59;1031223;28;20045;-66
2024/02/06 01:31:51;;;;;;;0.85;0.63;;;;;;;7.01;100.00;96041.06;1031486;28;20038;-66
2024/02/06 01:32:22;;;;;;;0.30;0.25;;;;;;;6.92;100.00;96042.44;1035424;28;20481;-65
2024/02/06 01:32:52;;;;;;;2.83;2.15;;;;;;;6.89;100.00;96042.91;1035501;28;20409;-65
2024/02/06 01:33:23;;;;;;;0.52;0.40;;;;;;;6.89;100.00;96042.91;1035528;28;20026;-65
2024/02/06 01:33:53;;;;;;;3.33;1.48;;;;;;;6.87;100.00;96043.13;1035504;28;20029;-66
2024/02/06 01:34:24;;;;;;;0.00;0.00;;;;;;;6.94;100.00;96045.59;1040022;28;20397;-67
2024/02/06 01:34:54;;;;;;;0.10;0.10;;;;;;;7.01;100.00;96041.06;1035601;28;20049;-70
2024/02/06 01:35:24;;;;;;;1.27;0.57;;;;;;;6.99;100.00;96033.44;1035496;28;20076;-65
2024/02/06 01:35:55;;;;;;;0.30;0.30;;;;;;;7.01;100.00;96036.63;1031355;28;20061;-69
2024/02/06 01:36:25;;;;;;;3.22;1.77;;;;;;;7.01;100.00;96033.22;1027576;28;20033;-67
2024/02/06 01:36:56;;;;;;;0.10;0.10;;;;;;;6.94;100.00;96038.59;1031391;28;20470;-67
2024/02/06 01:37:26;;;;;;;0.20;0.20;;;;;;;6.87;100.00;96034.50;1031397;28;20030;-64
2024/02/06 01:37:57;;;;;;;3.88;1.02;;;;;;;6.80;100.00;96045.06;1035471;28;20026;-64
2024/02/06 01:38:27;;;;;;;0.88;0.25;;;;;;;6.87;100.00;96035.28;1035441;28;20080;-66
2024/02/06 01:38:57;;;;;;;0.40;0.40;;;;;;;6.87;100.00;96040.50;1031346;28;20030;-68
2024/02/06 01:39:28;;;;;;;3.33;1.75;;;;;;;6.81;100.00;96036.25;1026595;28;20038;-68
2024/02/06 01:39:58;;;;;;;0.40;0.25;;;;;;;6.85;100.00;96038.13;1031363;28;20026;-67
2024/02/06 01:40:29;;;;;;;2.92;0.75;;;;;;;6.85;100.00;96037.34;1031481;28;20027;-66
2024/02/06 01:40:59;;;;;;;0.15;0.15;;;;;;;6.85;100.00;96037.34;1035365;28;20104;-66
2024/02/06 01:41:30;;;;;;;0.00;0.00;;;;;;;6.80;100.00;96032.03;1035341;28;20077;-66
2024/02/06 01:42:03;;;;;;;5.15;1.35;;;;;;;6.88;100.00;96033.50;1035342;28;20022;-65
2024/02/06 01:42:34;;;;;;;0.40;0.40;;;;;;;6.87;100.00;96037.09;1035231;28;20029;-68
2024/02/06 01:43:05;;;;;;;0.52;0.20;;;;;;;6.95;100.00;96036.75;1031915;28;20038;-67
2024/02/06 01:43:35;;;;;;;7.00;0.52;;;;;;;6.95;100.00;96031.53;1035362;28;20709;-65
2024/02/06 01:44:06;;;;;;;0.35;0.30;;;;;;;6.87;100.00;96039.72;1035448;28;20024;-69
2024/02/06 01:44:36;;;;;;;1.65;1.55;;;;;;;6.78;100.00;96032.28;1031644;28;20022;-64
2024/02/06 01:45:07;;;;;;;0.15;0.15;;;;;;;6.75;100.00;96040.56;1031620;28;20027;-66
2024/02/06 01:45:38;;;;;;;2.85;1.17;;;;;;;6.67;100.00;96027.84;1027345;28;20026;-65
2024/02/06 01:46:08;;;;;;;5.20;1.40;;;;;;;6.80;100.00;96038.03;1023500;28;20447;-66
2024/02/06 01:46:39;;;;;;;1.55;1.25;;;;;;;6.75;100.00;96037.16;1023083;28;20075;-65
2024/02/06 01:47:09;;;;;;;0.17;0.17;;;;;;;6.72;100.00;96027.97;1019789;29;20043;-66
2024/02/06 01:47:40;;;;;;;0.30;0.30;;;;;;;6.72;100.00;96027.19;1019690;29;20039;-67
2024/02/06 01:48:11;;;;;;;0.10;0.10;;;;;;;6.71;100.00;96031.59;1023432;29;20023;-65
2024/02/06 01:48:41;;;;;;;0.00;0.00;;;;;;;6.77;100.00;96028.09;1019670;29;20257;-66
2024/02/06 01:49:12;;;;;;;0.40;0.40;;;;;;;6.95;100.00;96032.34;1015132;29;20028;-65
2024/02/06 01:49:43;;;;;;;0.20;0.20;;;;;;;7.01;100.00;96030.63;1011872;29;20506;-67
2024/02/06 01:50:13;;;;;;;1.75;1.08;;;;;;;7.00;100.00;96023.81;1020260;28;20016;-65
2024/02/06 01:50:43;;;;;;;0.00;0.00;;;;;;;6.93;100.00;96017.94;1024238;28;20028;-66
2024/02/06 01:51:15;;;;;;;0.30;0.30;;;;;;;6.92;100.00;96017.16;1022821;29;20031;-69
2024/02/06 01:51:46;;;;;;;0.32;0.32;;;;;;;6.95;100.00;96026.31;1025933;29;20047;-67
2024/02/06 01:52:16;;;;;;;0.70;0.52;;;;;;;6.93;100.00;96023.16;1022550;29;20035;-69
2024/02/06 01:52:47;;;;;;;0.50;0.50;;;;;;;6.89;100.00;96022.81;1026405;29;20023;-66
2024/02/06 01:53:17;;;;;;;0.70;0.45;;;;;;;6.87;100.00;96029.28;1025698;29;20023;-65
2024/02/06 01:53:48;;;;;;;0.20;0.20;;;;;;;6.81;100.00;96026.59;1014184;29;20051;-66
2024/02/06 01:54:19;;;;;;;0.25;0.25;;;;;;;6.79;100.00;96020.00;1014095;29;20025;-70
2024/02/06 01:54:50;;;;;;;1.45;0.43;;;;;;;6.81;100.00;96026.59;1018964;29;20099;-67
2024/02/06 01:55:20;;;;;;;0.20;0.20;;;;;;;6.91;100.00;96017.34;1022306;28;20110;-67
2024/02/06 01:55:51;;;;;;;0.05;0.05;;;;;;;6.98;100.00;96020.66;1026196;29;20038;-70
2024/02/06 01:56:21;;;;;;;1.20;0.93;;;;;;;6.91;100.00;96020.78;1026035;28;20035;-67
2024/02/06 01:56:53;;;;;;;0.30;0.20;;;;;;;6.98;100.00;96016.22;1030758;28;20387;-64
2024/02/06 01:57:24;;;;;;;0.25;0.25;;;;;;;7.07;100.00;96019.22;1023639;28;20773;-65
2024/02/06 01:57:54;;;;;;;0.00;0.00;;;;;;;7.05;100.00;96016.09;1027473;28;20034;-65
2024/02/06 01:58:25;;;;;;;1.33;0.40;;;;;;;6.96;100.00;96018.25;1019573;29;20016;-67
2024/02/06 01:58:55;;;;;;;0.60;0.25;;;;;;;6.90;100.00;96013.19;1019846;29;20024;-65
2024/02/06 01:59:26;;;;;;;2.40;1.88;;;;;;;6.86;100.00;96018.06;1023004;29;20027;-65
2024/02/06 01:59:56;;;;;;;0.50;0.50;;;;;;;6.88;100.00;96018.63;1024234;28;20100;-69
2024/02/06 02:00:27;;;;;;;0.10;0.10;;;;;;;6.90;100.00;96013.19;1027595;28;20023;-66
2024/02/06 02:00:57;;;;;;;0.28;0.28;;;;;;;6.87;100.00;96000.59;1027484;28;20069;-65
2024/02/06 02:01:28;;;;;;;0.45;0.45;;;;;;;6.88;100.00;96015.25;1027399;28;20030;-66
2024/02/06 02:01:58;;;;;;;0.85;0.22;;;;;;;6.78;100.00;96006.19;1031236;28;20058;-67
2024/02/06 02:02:29;;;;;;;0.52;0.52;;;;;;;6.87;100.00;96005.81;1027283;28;20037;-66
2024/02/06 02:02:59;;;;;;;1.05;0.38;;;;;;;6.89;100.00;96009.00;1023398;29;20027;-66
2024/02/06 02:03:31;;;;;;;0.60;0.60;;;;;;;6.87;100.00;96008.41;1021763;29;20039;-65
2024/02/06 02:04:02;;;;;;;2.50;0.73;;;;;;;6.80;100.00;95998.91;1020020;28;20119;-66
2024/02/06 02:04:32;;;;;;;0.20;0.20;;;;;;;6.84;100.00;96000.06;1023295;29;20030;-66
2024/02/06 02:05:06;;;;;;;2.63;0.60;;;;;;;6.94;100.00;96001.25;1015571;29;20020;-65
2024/02/06 02:05:39;;;;;;;0.30;0.30;;;;;;;6.91;100.00;96009.53;1019246;29;20015;-65
2024/02/06 02:06:10;;;;;;;0.35;0.13;;;;;;;6.81;100.00;95997.91;1015669;29;20054;-66
2024/02/06 02:06:40;;;;;;;0.05;0.05;;;;;;;6.83;100.00;96001.06;1016165;29;20013;-65
2024/02/06 02:07:13;;;;;;;0.00;0.00;;;;;;;6.84;100.00;96005.28;1023876;28;20023;-66
2024/02/06 02:07:43;;;;;;;1.45;1.33;;;;;;;6.90;100.00;95992.31;1027966;28;20030;-66
2024/02/06 02:08:14;;;;;;;0.10;0.10;;;;;;;6.89;100.00;95995.94;1023857;28;20659;-70
2024/02/06 02:08:45;;;;;;;0.47;0.15;;;;;;;6.97;100.00;96000.78;1030634;28;20073;-67
2024/02/06 02:09:15;;;;;;;0.20;0.20;;;;;;;6.99;100.00;95998.75;1026324;28;20038;-65
2024/02/06 02:09:46;;;;;;;1.10;0.55;;;;;;;6.97;100.00;96003.41;1019674;29;20032;-66
2024/02/06 02:10:17;;;;;;;0.20;0.20;;;;;;;6.93;100.00;95992.63;1025570;28;20787;-67
2024/02/06 02:10:47;;;;;;;0.35;0.35;;;;;;;7.03;100.00;95992.03;1028221;28;20081;-66
2024/02/06 02:11:18;;;;;;;2.03;0.88;;;;;;;6.99;100.00;95994.31;1023887;28;20526;-65
2024/02/06 02:11:48;;;;;;;0.65;0.52;;;;;;;6.92;100.00;95998.09;1027657;28;20038;-65
2024/02/06 02:12:18;;;;;;;0.00;0.00;;;;;;;6.86;100.00;95991.97;1027535;28;20034;-67
2024/02/06 02:12:49;;;;;;;0.40;0.40;;;;;;;6.81;100.00;95990.09;1027407;28;20031;-66
2024/02/06 02:13:19;;;;;;;0.55;0.55;;;;;;;6.90;100.00;96005.34;1031531;28;20481;-65
2024/02/06 02:13:51;;;;;;;0.10;0.10;;;;;;;6.92;100.00;96003.31;1030741;28;20041;-66
2024/02/06 02:14:21;;;;;;;6.70;1.02;;;;;;;6.90;100.00;96000.13;1031579;28;20018;-66
2024/02/06 02:14:52;;;;;;;0.05;0.05;;;;;;;6.89;100.00;96004.56;1031545;28;20022;-66
2024/02/06 02:15:22;;;;;;;0.52;0.52;;;;;;;6.92;100.00;96008.53;1031357;28;20577;-65
2024/02/06 02:15:53;;;;;;;0.03;0.03;;;;;;;6.84;100.00;96001.84;1031463;28;20053;-67
2024/02/06 02:16:23;;;;;;;0.30;0.30;;;;;;;6.86;100.00;96005.03;1023272;29;20030;-65
2024/02/06 02:16:54;;;;;;;0.25;0.25;;;;;;;6.91;100.00;96001.72;1023167;28;20034;-68
2024/02/06 02:17:24;;;;;;;0.15;0.15;;;;;;;6.88;100.00;95997.78;1027711;28;20019;-67
2024/02/06 02:17:55;;;;;;;0.40;0.40;;;;;;;6.90;100.00;96005.34;1031251;28;20037;-66
2024/02/06 02:18:32;;;;;;;1.40;0.52;;;;;;;6.87;100.00;95993.56;1039929;28;20032;-65
2024/02/06 02:19:02;;;;;;;0.20;0.20;;;;;;;6.95;100.00;95998.41;1035169;28;20073;-65
2024/02/06 02:19:33;;;;;;;0.47;0.47;;;;;;;6.93;100.00;96002.28;1034745;28;20486;-66
2024/02/06 02:20:06;;;;;;;0.38;0.30;;;;;;;6.93;100.00;96004.88;1035439;28;20077;-65
2024/02/06 02:20:36;;;;;;;0.40;0.40;;;;;;;6.90;100.00;96003.53;1030998;28;20038;-65
2024/02/06 02:21:10;;;;;;;0.00;0.00;;;;;;;6.97;100.00;95998.19;1030816;28;20030;-67
2024/02/06 02:21:40;;;;;;;0.50;0.15;;;;;;;6.95;100.00;96006.25;1023086;29;20094;-65
2024/02/06 02:22:11;;;;;;;2.45;0.65;;;;;;;6.94;100.00;96001.25;1017983;29;20035;-66
2024/02/06 02:22:41;;;;;;;1.83;0.98;;;;;;;6.92;100.00;96000.69;1021873;28;20475;-65
2024/02/06 02:23:12;;;;;;;0.98;0.98;;;;;;;6.90;100.00;96000.13;1027550;28;20027;-64
2024/02/06 02:23:43;;;;;;;0.77;0.52;;;;;;;6.81;100.00;95995.28;1034963;28;20065;-65
2024/02/06 02:24:13;;;;;;;0.30;0.22;;;;;;;6.81;100.00;95997.91;1033424;28;20557;-65
2024/02/06 02:24:44;;;;;;;7.88;0.98;;;;;;;6.82;100.00;95989.03;1031495;28;20029;-66